createdAt,value
2022-08-17T00:01:51.285Z,18.03
2022-08-17T00:04:19.545Z,17.96
2022-08-17T00:06:49.350Z,17.96
2022-08-17T00:09:18.746Z,17.94
2022-08-17T00:12:35.510Z,17.87
2022-08-17T00:14:36.455Z,17.71
2022-08-17T00:17:04.766Z,17.59
2022-08-17T00:19:32.886Z,17.53
2022-08-17T00:22:32.215Z,17.48
2022-08-17T00:24:50.218Z,17.47
2022-08-17T00:27:17.609Z,17.42
2022-08-17T00:29:45.951Z,17.49
2022-08-17T00:33:12.120Z,17.48
2022-08-17T00:35:04.990Z,17.42
2022-08-17T00:37:31.755Z,17.39
2022-08-17T00:39:58.716Z,17.35
2022-08-17T00:42:30.796Z,17.28
2022-08-17T00:44:58.552Z,17.21
2022-08-17T00:47:25.681Z,17.20
2022-08-17T00:49:52.814Z,17.23
2022-08-17T00:52:27.627Z,17.30
2022-08-17T00:54:55.695Z,17.25
2022-08-17T00:57:39.269Z,17.20
2022-08-17T01:00:10.969Z,17.16
2022-08-17T01:02:43.279Z,17.20
2022-08-17T01:05:14.887Z,17.24
2022-08-17T01:07:42.918Z,17.22
2022-08-17T01:10:59.175Z,17.17
2022-08-17T01:13:02.566Z,17.13
2022-08-17T01:15:36.525Z,17.21
2022-08-17T01:18:07.854Z,17.23
2022-08-17T01:20:48.230Z,17.27
2022-08-17T01:23:20.605Z,17.44
2022-08-17T01:26:01.814Z,17.43
2022-08-17T01:28:52.750Z,17.02
2022-08-17T01:31:18.391Z,16.67
2022-08-17T01:33:45.569Z,16.51
2022-08-17T01:36:12.308Z,16.39
2022-08-17T01:38:40.394Z,16.24
2022-08-17T01:41:12.349Z,16.24
2022-08-17T01:43:51.042Z,16.24
2022-08-17T01:46:23.298Z,16.18
2022-08-17T01:48:51.504Z,16.13
2022-08-17T01:51:19.987Z,16.13
2022-08-17T01:53:53.999Z,16.17
2022-08-17T01:56:24.516Z,16.10
2022-08-17T01:58:52.591Z,16.09
2022-08-17T02:01:23.027Z,16.04
2022-08-17T02:03:59.181Z,15.99
2022-08-17T02:06:52.558Z,15.96
2022-08-17T02:09:19.355Z,15.89
2022-08-17T02:11:50.301Z,15.85
2022-08-17T02:14:17.979Z,15.79
2022-08-17T02:16:44.796Z,15.75
2022-08-17T02:19:15.712Z,15.73
2022-08-17T02:21:45.984Z,15.76
2022-08-17T02:24:58.707Z,15.72
2022-08-17T02:27:06.486Z,15.60
2022-08-17T02:29:33.408Z,15.48
2022-08-17T02:32:01.879Z,15.57
2022-08-17T02:34:29.130Z,15.71
2022-08-17T02:36:56.194Z,15.79
2022-08-17T02:39:23.032Z,15.89
2022-08-17T02:41:50.043Z,16.15
2022-08-17T02:44:39.114Z,16.31
2022-08-17T02:47:04.168Z,16.45
2022-08-17T02:49:31.440Z,16.38
2022-08-17T02:51:58.667Z,16.04
2022-08-17T02:54:39.993Z,15.67
2022-08-17T02:57:10.161Z,15.36
2022-08-17T02:59:38.652Z,15.23
2022-08-17T03:02:11.490Z,15.18
2022-08-17T03:04:38.560Z,15.17
2022-08-17T03:07:06.684Z,15.15
2022-08-17T03:09:33.657Z,15.19
2022-08-17T03:12:12.922Z,15.21
2022-08-17T03:14:41.863Z,15.32
2022-08-17T03:17:10.125Z,15.48
2022-08-17T03:19:37.519Z,15.67
2022-08-17T03:22:35.381Z,15.93
2022-08-17T03:24:56.809Z,15.94
2022-08-17T03:27:23.598Z,15.82
2022-08-17T03:29:50.424Z,15.67
2022-08-17T03:32:17.582Z,15.58
2022-08-17T03:34:44.402Z,15.58
2022-08-17T03:37:11.175Z,15.54
2022-08-17T03:39:38.662Z,15.52
2022-08-17T03:42:31.508Z,15.73
2022-08-17T03:45:00.101Z,15.95
2022-08-17T03:47:45.899Z,16.13
2022-08-17T03:50:32.172Z,16.20
2022-08-17T03:53:19.152Z,16.22
2022-08-17T03:56:04.558Z,16.23
2022-08-17T03:58:31.409Z,16.18
2022-08-17T04:00:58.173Z,16.06
2022-08-17T04:03:24.998Z,16.06
2022-08-17T04:05:51.806Z,16.09
2022-08-17T04:08:19.042Z,16.21
2022-08-17T04:10:46.086Z,16.54
2022-08-17T04:13:13.837Z,16.58
2022-08-17T04:15:40.850Z,16.42
2022-08-17T04:18:07.756Z,16.16
2022-08-17T04:20:37.898Z,16.20
2022-08-17T04:23:10.808Z,16.38
2022-08-17T04:25:40.422Z,16.62
2022-08-17T04:28:15.928Z,16.86
2022-08-17T04:30:45.415Z,16.91
2022-08-17T04:33:16.454Z,16.88
2022-08-17T04:35:46.890Z,16.82
2022-08-17T04:38:16.853Z,16.70
2022-08-17T04:41:02.669Z,16.65
2022-08-17T04:43:31.208Z,16.50
2022-08-17T04:46:01.744Z,16.43
2022-08-17T04:48:37.858Z,16.33
2022-08-17T04:51:15.318Z,16.22
2022-08-17T04:53:45.266Z,16.16
2022-08-17T04:56:16.773Z,16.20
2022-08-17T04:58:48.316Z,16.42
2022-08-17T05:01:19.031Z,16.68
2022-08-17T05:03:53.285Z,16.79
2022-08-17T05:06:20.691Z,16.88
2022-08-17T05:08:47.491Z,16.93
2022-08-17T05:11:14.647Z,17.02
2022-08-17T05:13:41.900Z,17.12
2022-08-17T05:16:09.185Z,17.27
2022-08-17T05:18:38.775Z,17.39
2022-08-17T05:21:06.872Z,17.43
2022-08-17T05:23:43.000Z,17.42
2022-08-17T05:26:21.963Z,17.42
2022-08-17T05:29:02.837Z,17.46
2022-08-17T05:31:30.711Z,17.54
2022-08-17T05:33:58.377Z,17.64
2022-08-17T05:36:42.015Z,17.69
2022-08-17T05:39:16.299Z,17.66
2022-08-17T05:41:45.838Z,17.64
2022-08-17T05:44:12.661Z,17.73
2022-08-17T05:46:43.555Z,17.86
2022-08-17T05:49:11.945Z,17.94
2022-08-17T05:51:57.500Z,18.00
2022-08-17T05:54:50.061Z,18.17
2022-08-17T05:57:26.910Z,18.34
2022-08-17T06:00:12.170Z,18.50
2022-08-17T06:03:25.818Z,18.61
2022-08-17T06:06:25.250Z,18.83
2022-08-17T06:09:21.184Z,18.98
2022-08-17T06:11:58.737Z,19.04
2022-08-17T06:14:31.713Z,19.11
2022-08-17T06:17:04.294Z,19.11
2022-08-17T06:19:34.042Z,19.15
2022-08-17T06:22:02.812Z,19.23
2022-08-17T06:24:57.858Z,19.34
2022-08-17T06:27:35.867Z,19.41
2022-08-17T06:30:11.701Z,19.50
2022-08-17T06:32:42.751Z,19.58
2022-08-17T06:35:14.123Z,19.58
2022-08-17T06:38:38.093Z,19.59
2022-08-17T06:41:17.507Z,19.56
2022-08-17T06:44:42.143Z,19.49
2022-08-17T06:47:28.671Z,19.46
2022-08-17T06:50:10.059Z,19.49
2022-08-17T06:53:19.748Z,19.59
2022-08-17T06:55:46.788Z,19.63
2022-08-17T06:58:18.351Z,19.66
2022-08-17T07:00:47.850Z,19.80
2022-08-17T07:03:44.260Z,19.86
2022-08-17T07:06:19.664Z,19.71
2022-08-17T07:08:57.838Z,19.68
2022-08-17T07:12:17.307Z,19.75
2022-08-17T07:14:56.304Z,19.78
2022-08-17T07:17:46.600Z,19.76
2022-08-17T07:20:15.258Z,19.70
2022-08-17T07:23:00.301Z,19.54
2022-08-17T07:25:31.620Z,19.53
2022-08-17T07:28:02.397Z,19.45
2022-08-17T07:30:46.938Z,19.36
2022-08-17T07:33:19.959Z,19.41
2022-08-17T07:35:48.416Z,19.42
2022-08-17T07:38:48.377Z,19.54
2022-08-17T07:41:15.158Z,19.52
2022-08-17T07:43:41.912Z,19.51
2022-08-17T07:46:30.378Z,19.49
2022-08-17T07:49:19.029Z,19.43
2022-08-17T07:51:57.097Z,19.28
2022-08-17T07:54:35.751Z,19.14
2022-08-17T07:57:08.500Z,19.12
2022-08-17T07:59:38.532Z,19.13
2022-08-17T08:02:31.969Z,19.03
2022-08-17T08:05:13.328Z,19.12
2022-08-17T08:07:52.250Z,19.13
2022-08-17T08:10:27.934Z,19.11
2022-08-17T08:13:15.007Z,19.19
2022-08-17T08:15:49.382Z,19.22
2022-08-17T08:18:53.867Z,19.35
2022-08-17T08:21:35.589Z,19.41
2022-08-17T08:24:36.678Z,19.50
2022-08-17T08:27:46.634Z,19.57
2022-08-17T08:30:21.292Z,19.72
2022-08-17T08:32:51.069Z,19.73
2022-08-17T08:35:29.644Z,19.70
2022-08-17T08:38:26.803Z,19.69
2022-08-17T08:41:00.462Z,19.75
2022-08-17T08:43:37.267Z,19.77
2022-08-17T08:46:36.799Z,19.86
2022-08-17T08:50:02.708Z,19.98
2022-08-17T08:53:00.125Z,20.07
2022-08-17T08:55:51.902Z,20.34
2022-08-17T08:58:31.632Z,20.90
2022-08-17T09:01:26.367Z,22.11
2022-08-17T09:04:25.500Z,22.78
2022-08-17T09:07:11.932Z,22.41
2022-08-17T09:10:25.505Z,22.35
2022-08-17T09:13:09.310Z,22.38
2022-08-17T09:15:47.212Z,22.33
2022-08-17T09:19:02.199Z,22.12
2022-08-17T09:21:27.306Z,21.97
2022-08-17T09:24:06.980Z,22.02
2022-08-17T09:26:59.716Z,21.40
2022-08-17T09:29:32.399Z,21.52
2022-08-17T09:32:09.582Z,22.18
2022-08-17T09:34:47.003Z,22.56
2022-08-17T09:37:47.751Z,22.54
2022-08-17T09:40:24.441Z,22.71
2022-08-17T09:43:27.669Z,22.60
2022-08-17T09:46:03.901Z,22.86
2022-08-17T09:48:50.678Z,23.35
2022-08-17T09:51:40.141Z,23.44
2022-08-17T09:54:38.089Z,23.46
2022-08-17T09:57:29.017Z,23.52
2022-08-17T10:00:29.277Z,22.98
2022-08-17T10:03:17.973Z,23.23
2022-08-17T10:06:27.170Z,23.12
2022-08-17T10:09:07.298Z,22.67
2022-08-17T10:12:17.410Z,22.83
2022-08-17T10:14:53.633Z,23.11
2022-08-17T10:17:29.294Z,23.13
2022-08-17T10:20:10.784Z,23.18
2022-08-17T10:23:08.041Z,22.99
2022-08-17T10:26:00.401Z,23.12
2022-08-17T10:28:32.006Z,23.04
2022-08-17T10:31:33.029Z,23.21
2022-08-17T10:34:14.264Z,23.48
2022-08-17T10:36:54.924Z,23.22
2022-08-17T10:39:50.397Z,22.93
2022-08-17T10:42:43.844Z,23.09
2022-08-17T10:45:35.368Z,23.04
2022-08-17T10:48:22.158Z,23.22
2022-08-17T10:51:07.679Z,23.21
2022-08-17T10:53:38.796Z,23.10
2022-08-17T10:56:13.496Z,23.20
2022-08-17T10:58:57.951Z,23.26
2022-08-17T11:01:42.096Z,23.58
2022-08-17T11:04:24.207Z,23.61
2022-08-17T11:07:07.142Z,23.77
2022-08-17T11:10:01.762Z,23.72
2022-08-17T11:12:37.624Z,23.48
2022-08-17T11:15:35.883Z,23.55
2022-08-17T11:18:08.645Z,23.42
2022-08-17T11:21:02.766Z,23.21
2022-08-17T11:23:50.282Z,23.23
2022-08-17T11:26:26.592Z,23.17
2022-08-17T11:29:24.586Z,23.00
2022-08-17T11:32:26.820Z,22.96
2022-08-17T11:35:15.058Z,23.10
2022-08-17T11:38:16.229Z,23.13
2022-08-17T11:40:59.476Z,23.12
2022-08-17T11:43:47.428Z,23.63
2022-08-17T11:46:18.515Z,23.62
2022-08-17T11:49:34.918Z,24.15
2022-08-17T11:52:01.729Z,24.87
2022-08-17T11:54:33.831Z,25.70
2022-08-17T11:57:26.802Z,25.71
2022-08-17T11:59:58.752Z,25.85
2022-08-17T12:02:32.639Z,26.35
2022-08-17T12:05:14.492Z,26.46
2022-08-17T12:07:52.697Z,26.84
2022-08-17T12:10:32.028Z,27.09
2022-08-17T12:13:03.458Z,27.07
2022-08-17T12:15:37.588Z,26.67
2022-08-17T12:18:04.377Z,25.61
2022-08-17T12:20:40.461Z,24.78
2022-08-17T12:23:10.384Z,23.97
2022-08-17T12:26:07.244Z,24.25
2022-08-17T12:28:38.667Z,24.32
2022-08-17T12:31:21.851Z,24.03
2022-08-17T12:33:51.727Z,23.86
2022-08-17T12:36:24.816Z,23.97
2022-08-17T12:38:59.475Z,23.93
2022-08-17T12:41:43.657Z,23.80
2022-08-17T12:44:25.825Z,23.72
2022-08-17T12:47:10.744Z,23.18
2022-08-17T12:49:42.190Z,23.04
2022-08-17T12:52:26.665Z,23.27
2022-08-17T12:54:59.378Z,23.74
2022-08-17T12:57:38.048Z,24.80
2022-08-17T13:00:17.715Z,25.36
2022-08-17T13:02:48.657Z,24.83
2022-08-17T13:05:36.346Z,25.61
2022-08-17T13:08:14.704Z,25.26
2022-08-17T13:10:41.626Z,24.61
2022-08-17T13:13:21.332Z,24.65
2022-08-17T13:15:54.969Z,24.33
2022-08-17T13:18:39.920Z,24.34
2022-08-17T13:21:18.891Z,25.47
2022-08-17T13:23:59.901Z,25.15
2022-08-17T13:26:34.491Z,24.69
2022-08-17T13:29:05.387Z,23.96
2022-08-17T13:31:39.451Z,23.09
2022-08-17T13:34:26.849Z,22.95
2022-08-17T13:37:36.900Z,23.02
2022-08-17T13:40:29.146Z,23.04
2022-08-17T13:42:56.895Z,22.94
2022-08-17T13:45:35.176Z,22.88
2022-08-17T13:48:15.905Z,22.87
2022-08-17T13:50:46.406Z,22.68
2022-08-17T13:53:17.850Z,22.72
2022-08-17T13:55:51.881Z,22.67
2022-08-17T13:58:22.449Z,22.49
2022-08-17T14:00:50.624Z,22.56
2022-08-17T14:03:18.833Z,22.66
2022-08-17T14:05:46.249Z,22.89
2022-08-17T14:08:15.443Z,23.23
2022-08-17T14:10:43.593Z,23.55
2022-08-17T14:13:10.403Z,24.43
2022-08-17T14:15:55.469Z,24.66
2022-08-17T14:18:35.495Z,24.35
2022-08-17T14:21:11.420Z,24.41
2022-08-17T14:23:38.494Z,24.45
2022-08-17T14:26:05.630Z,24.67
2022-08-17T14:28:32.486Z,24.38
2022-08-17T14:31:00.819Z,24.21
2022-08-17T14:33:30.739Z,23.66
2022-08-17T14:35:58.121Z,23.30
2022-08-17T14:38:25.236Z,23.11
2022-08-17T14:40:52.565Z,23.12
2022-08-17T14:43:20.470Z,22.79
2022-08-17T14:45:47.324Z,22.72
2022-08-17T14:48:14.194Z,22.37
2022-08-17T14:50:42.623Z,22.33
2022-08-17T14:53:11.419Z,22.12
2022-08-17T14:55:40.501Z,22.17
2022-08-17T14:58:08.775Z,22.15
2022-08-17T15:00:35.585Z,22.05
2022-08-17T15:03:03.054Z,22.06
2022-08-17T15:05:33.754Z,21.95
2022-08-17T15:08:02.342Z,21.74
2022-08-17T15:10:30.365Z,21.56
2022-08-17T15:12:57.875Z,21.55
2022-08-17T15:15:25.218Z,21.58
2022-08-17T15:17:52.011Z,21.50
2022-08-17T15:20:21.949Z,21.33
2022-08-17T15:22:55.668Z,21.18
2022-08-17T15:25:24.624Z,21.05
2022-08-17T15:27:52.057Z,20.93
2022-08-17T15:30:19.855Z,20.91
2022-08-17T15:32:54.780Z,20.73
2022-08-17T15:35:27.453Z,20.55
2022-08-17T15:38:04.576Z,20.44
2022-08-17T15:40:37.235Z,20.45
2022-08-17T15:43:08.487Z,20.47
2022-08-17T15:45:35.374Z,20.40
2022-08-17T15:48:02.425Z,20.26
2022-08-17T15:50:29.281Z,20.22
2022-08-17T15:52:58.655Z,20.15
2022-08-17T15:55:28.277Z,20.11
2022-08-17T15:57:55.757Z,20.08
2022-08-17T16:00:24.024Z,20.00
2022-08-17T16:03:46.978Z,19.91
2022-08-17T16:05:37.769Z,19.81
2022-08-17T16:08:07.985Z,19.78
2022-08-17T16:10:35.973Z,19.71
2022-08-17T16:13:04.446Z,19.57
2022-08-17T16:15:32.058Z,19.50
2022-08-17T16:17:59.449Z,19.44
2022-08-17T16:20:26.292Z,19.41
2022-08-17T16:22:54.151Z,19.37
2022-08-17T16:25:47.103Z,19.34
2022-08-17T16:28:13.662Z,19.33
2022-08-17T16:30:41.236Z,19.32
2022-08-17T16:33:11.397Z,19.28
2022-08-17T16:35:38.810Z,19.28
2022-08-17T16:38:07.302Z,19.21
2022-08-17T16:40:35.982Z,19.15
2022-08-17T16:43:04.163Z,19.15
2022-08-17T16:45:40.110Z,19.17
2022-08-17T16:48:08.157Z,19.12
2022-08-17T16:50:36.221Z,18.34
2022-08-17T16:53:11.670Z,17.86
2022-08-17T16:55:38.605Z,17.18
2022-08-17T16:58:06.889Z,16.92
2022-08-17T17:00:34.557Z,16.83
2022-08-17T17:03:18.976Z,16.71
2022-08-17T17:05:55.259Z,16.55
2022-08-17T17:08:46.769Z,16.75
2022-08-17T17:11:40.277Z,16.82
2022-08-17T17:14:29.939Z,16.93
2022-08-17T17:17:25.472Z,16.93
2022-08-17T17:20:02.854Z,16.87
2022-08-17T17:22:48.255Z,16.86
2022-08-17T17:25:40.560Z,16.85
2022-08-17T17:28:34.545Z,16.87
2022-08-17T17:31:20.570Z,16.91
2022-08-17T17:33:52.536Z,16.94
2022-08-17T17:36:51.485Z,16.87
2022-08-17T17:39:23.689Z,16.83
2022-08-17T17:41:59.466Z,16.85
2022-08-17T17:44:33.068Z,16.88
2022-08-17T17:47:02.762Z,16.92
2022-08-17T17:49:55.981Z,16.97
2022-08-17T17:52:40.982Z,17.03
2022-08-17T17:55:19.624Z,17.08
2022-08-17T17:58:33.256Z,17.25
2022-08-17T18:01:22.380Z,17.52
2022-08-17T18:04:17.001Z,17.79
2022-08-17T18:07:29.071Z,17.92
2022-08-17T18:10:30.115Z,18.01
2022-08-17T18:13:16.592Z,18.06
2022-08-17T18:15:51.181Z,18.07
2022-08-17T18:18:18.031Z,18.13
2022-08-17T18:20:55.855Z,18.15
2022-08-17T18:23:28.185Z,18.22
2022-08-17T18:25:56.303Z,18.22
2022-08-17T18:28:34.057Z,18.24
2022-08-17T18:31:03.584Z,18.24
2022-08-17T18:33:30.341Z,18.22
2022-08-17T18:35:59.593Z,18.20
2022-08-17T18:38:36.403Z,18.18
2022-08-17T18:41:06.106Z,18.16
2022-08-17T18:43:44.479Z,18.15
2022-08-17T18:46:35.145Z,18.16
2022-08-17T18:49:26.159Z,18.18
2022-08-17T18:52:11.636Z,18.16
2022-08-17T18:54:38.845Z,18.09
2022-08-17T18:57:07.600Z,18.10
2022-08-17T18:59:48.162Z,18.09
2022-08-17T19:05:10.834Z,17.91
2022-08-17T19:07:41.116Z,17.90
2022-08-17T19:10:19.970Z,17.89
2022-08-17T19:13:12.714Z,17.87
2022-08-17T19:16:14.443Z,17.91
2022-08-17T19:18:52.942Z,17.98
2022-08-17T19:21:33.530Z,18.10
2022-08-17T19:24:19.487Z,18.18
2022-08-17T19:27:12.286Z,18.23
2022-08-17T19:29:57.068Z,18.27
2022-08-17T19:32:30.844Z,18.24
2022-08-17T19:34:57.974Z,18.23
2022-08-17T19:37:43.047Z,18.20
2022-08-17T19:40:51.585Z,18.19
2022-08-17T19:43:51.269Z,18.18
2022-08-17T19:46:27.081Z,18.20
2022-08-17T19:49:16.082Z,18.23
2022-08-17T19:51:45.942Z,18.25
2022-08-17T19:54:22.573Z,18.28
2022-08-17T19:57:09.246Z,18.32
2022-08-17T19:59:59.141Z,18.33
2022-08-17T20:03:00.067Z,18.28
2022-08-17T20:05:48.762Z,18.18
2022-08-17T20:08:26.030Z,18.14
2022-08-17T20:10:59.500Z,18.10
2022-08-17T20:13:46.366Z,18.10
2022-08-17T20:16:13.344Z,18.06
2022-08-17T20:18:58.665Z,18.05
2022-08-17T20:21:34.274Z,18.05
2022-08-17T20:24:18.334Z,18.07
2022-08-17T20:26:58.169Z,18.10
2022-08-17T20:30:12.230Z,18.16
2022-08-17T20:32:55.700Z,18.14
2022-08-17T20:35:34.599Z,18.11
2022-08-17T20:38:05.588Z,18.09
2022-08-17T20:40:35.189Z,18.09
2022-08-17T20:43:34.886Z,18.10
2022-08-17T20:46:29.101Z,18.08
2022-08-17T20:49:14.641Z,18.03
2022-08-17T20:52:01.419Z,17.96
2022-08-17T20:54:47.220Z,18.00
2022-08-17T20:57:32.414Z,17.99
2022-08-17T21:00:27.574Z,17.94
2022-08-17T21:03:51.185Z,17.90
2022-08-17T21:06:22.170Z,17.95
2022-08-17T21:08:53.878Z,17.99
2022-08-17T21:12:03.351Z,17.97
2022-08-17T21:14:58.031Z,17.97
2022-08-17T21:17:39.443Z,17.98
2022-08-17T21:20:44.526Z,18.01
2022-08-17T21:23:35.737Z,17.98
2022-08-17T21:26:11.797Z,17.98
2022-08-17T21:29:31.191Z,18.04
2022-08-17T21:31:59.603Z,18.05
2022-08-17T21:34:36.515Z,18.07
2022-08-17T21:37:24.047Z,18.06
2022-08-17T21:39:54.231Z,18.03
2022-08-17T21:42:34.475Z,18.00
2022-08-17T21:45:29.324Z,18.11
2022-08-17T21:48:16.664Z,18.18
2022-08-17T21:50:47.569Z,18.28
2022-08-17T21:53:40.066Z,18.24
2022-08-17T21:56:07.751Z,18.21
2022-08-17T21:58:39.975Z,18.22
2022-08-17T22:01:09.832Z,18.21
2022-08-17T22:03:38.561Z,18.17
2022-08-17T22:06:27.058Z,18.15
2022-08-17T22:09:18.292Z,18.10
2022-08-17T22:12:07.202Z,18.13
2022-08-17T22:14:53.272Z,18.11
2022-08-17T22:17:29.018Z,18.09
2022-08-17T22:20:14.456Z,18.11
2022-08-17T22:23:09.021Z,18.18
2022-08-17T22:25:40.692Z,18.16
2022-08-17T22:28:10.438Z,18.15
2022-08-17T22:30:43.780Z,18.11
2022-08-17T22:33:37.501Z,18.16
2022-08-17T22:36:11.984Z,18.14
2022-08-17T22:38:41.386Z,18.20
2022-08-17T22:41:22.806Z,18.16
2022-08-17T22:43:50.673Z,18.22
2022-08-17T22:46:23.878Z,18.15
2022-08-17T22:48:59.534Z,18.08
2022-08-17T22:51:30.940Z,18.06
2022-08-17T22:54:20.067Z,18.06
2022-08-17T22:57:18.761Z,18.04
2022-08-17T22:59:55.050Z,18.10
2022-08-17T23:02:28.863Z,18.14
2022-08-17T23:05:12.796Z,18.11
2022-08-17T23:07:42.440Z,18.13
2022-08-17T23:10:11.362Z,18.10
2022-08-17T23:12:39.844Z,18.03
2022-08-17T23:15:14.384Z,17.99
2022-08-17T23:17:42.015Z,17.90
2022-08-17T23:20:14.150Z,17.88
2022-08-17T23:22:52.102Z,17.88
2022-08-17T23:25:31.301Z,17.78
2022-08-17T23:28:01.506Z,17.75
2022-08-17T23:30:31.467Z,17.70
2022-08-17T23:33:01.359Z,17.63
2022-08-17T23:35:39.806Z,17.57
2022-08-17T23:38:12.899Z,17.50
2022-08-17T23:40:40.916Z,17.49
2022-08-17T23:43:24.723Z,17.52
2022-08-17T23:45:58.525Z,17.54
2022-08-17T23:48:36.109Z,17.58
2022-08-17T23:51:27.571Z,17.59
2022-08-17T23:54:11.639Z,17.61
2022-08-17T23:56:57.286Z,17.60
2022-08-17T23:59:24.078Z,17.64
